ENGM/OSL METAR and TAF weather

Enter ICAO airport designator
Station Type Date Time Source
ENGM METAR 2024/02/26 18:20 UTC NOAA

ENGM 261820Z 00000KT CAVOK M02/M03 Q1014 NOSIG


Station Type Date Time Source
ENGM Decoded METAR 2024/02/26 18:20 UTC NOAA

Oslo / Gardermoen, Norway (ENGM) 60-12N 011-05E 204M
Feb 26, 2024 - 01:20 PM EST / 2024.02.26 1820 UTC
Wind: Calm:0
Visibility: greater than 7 mile(s):0
Temperature: 28 F (-2 C)
Dew Point: 26 F (-3 C)
Relative Humidity: 92%
Pressure (altimeter): 29.94 in. Hg (1014 hPa)
ob: ENGM 261820Z 00000KT CAVOK M02/M03 Q1014 NOSIG
cycle: 18

Station Type Date Time Source
ENGM TAF 2024/02/26 18:36 UTC NOAA